Wetterdaten: Oktober 2016
Datum Temp Feuchte Luftdruck Regen Wind Richtung Sonnenschein UV Solar Windben
01.10.2016 9,9 C 93 % 1008,5 hPa 2,6 l/m 0,0 km/h O-SO 0,00 h 0,8 UV-I 74 W/m 0,0 km/h
02.10.2016 10,5 C 88 % 1011,1 hPa 4,4 l/m 1,5 km/h S 2,50 h 1,3 UV-I 166 W/m 10,1 km/h
03.10.2016 9,6 C 93 % 1024,8 hPa 7,8 l/m 0,0 km/h N-NW 0,67 h 0,9 UV-I 98 W/m 0,0 km/h
04.10.2016 11,0 C 82 % 1033,1 hPa 0,4 l/m 1,5 km/h N-NO 3,67 h 1,4 UV-I 223 W/m 8,1 km/h
05.10.2016 8,1 C 78 % 1030,9 hPa 0,0 l/m 5,3 km/h N-NO 4,83 h 1,3 UV-I 230 W/m 14,5 km/h
06.10.2016 8,4 C 92 % 1022,3 hPa 0,8 l/m 6,9 km/h N 0,00 h 0,7 UV-I 53 W/m 17,7 km/h
07.10.2016 10,4 C 91 % 1020,1 hPa 1,4 l/m 1,3 km/h N-NO 1,58 h 1,1 UV-I 139 W/m 6,4 km/h
08.10.2016 7,9 C 89 % 1023,2 hPa 1,0 l/m 0,0 km/h N-NO 1,50 h 0,9 UV-I 129 W/m 0,0 km/h
09.10.2016 6,4 C 89 % 1024,3 hPa 0,0 l/m 1,3 km/h N-NW 1,92 h 1,0 UV-I 156 W/m 2,4 km/h
10.10.2016 6,8 C 90 % 1022,9 hPa 0,0 l/m 0,0 km/h W-SW 0,50 h 1,0 UV-I 120 W/m 0,0 km/h
11.10.2016 6,8 C 94 % 1020,2 hPa 1,2 l/m 0,0 km/h N-NO 0,17 h 0,8 UV-I 94 W/m 0,8 km/h
12.10.2016 6,4 C 93 % 1020,4 hPa 0,2 l/m 0,5 km/h NO 0,00 h 0,7 UV-I 75 W/m 6,1 km/h
13.10.2016 6,8 C 91 % 1017,0 hPa 0,4 l/m 1,5 km/h O 0,00 h 0,6 UV-I 50 W/m 12,9 km/h
14.10.2016 8,8 C 85 % 1008,8 hPa 0,0 l/m 1,7 km/h O 4,42 h 1,3 UV-I 210 W/m 10,9 km/h
15.10.2016 9,4 C 93 % 1013,6 hPa 0,2 l/m 0,1 km/h S-SO 0,75 h 0,7 UV-I 80 W/m 2,4 km/h
16.10.2016 10,7 C 89 % 1020,9 hPa 0,2 l/m 2,9 km/h S-SO 7,17 h 1,5 UV-I 253 W/m 8,8 km/h
17.10.2016 12,3 C 90 % 1020,9 hPa 0,8 l/m 0,2 km/h S-SO 2,83 h 1,3 UV-I 156 W/m 3,6 km/h
18.10.2016 11,0 C 86 % 1017,6 hPa 3,4 l/m 3,0 km/h S 1,67 h 1,0 UV-I 144 W/m 9,7 km/h
19.10.2016 6,0 C 95 % 1011,4 hPa 20,6 l/m 4,4 km/h S 0,42 h 0,5 UV-I 35 W/m 13,3 km/h
20.10.2016 6,5 C 94 % 1012,5 hPa 3,4 l/m 0,0 km/h SW 0,00 h 0,7 UV-I 80 W/m 0,0 km/h
21.10.2016 5,8 C 95 % 1012,9 hPa 7,0 l/m 0,1 km/h NW 0,00 h 0,6 UV-I 44 W/m 1,2 km/h
22.10.2016 6,3 C 94 % 1013,5 hPa 2,0 l/m 0,0 km/h N 0,33 h 0,7 UV-I 99 W/m 0,0 km/h
23.10.2016 5,6 C 94 % 1013,5 hPa 0,0 l/m 1,3 km/h SO 4,00 h 0,9 UV-I 167 W/m 4,4 km/h
24.10.2016 6,9 C 97 % 1014,0 hPa 7,2 l/m 0,4 km/h SO 0,00 h 0,5 UV-I 36 W/m 2,8 km/h
25.10.2016 8,1 C 98 % 1023,0 hPa 3,0 l/m 0,0 km/h NW 0,00 h 0,5 UV-I 32 W/m 0,0 km/h
26.10.2016 6,9 C 94 % 1028,6 hPa 0,0 l/m 0,0 km/h S-SW 0,00 h 0,8 UV-I 85 W/m 0,0 km/h
27.10.2016 10,2 C 94 % 1031,2 hPa 1,0 l/m 1,3 km/h S 0,33 h 0,6 UV-I 51 W/m 11,3 km/h
28.10.2016 10,9 C 95 % 1030,8 hPa 4,4 l/m 1,6 km/h S-SW 0,00 h 0,6 UV-I 29 W/m 18,1 km/h
29.10.2016 7,7 C 91 % 1031,8 hPa 0,0 l/m 0,9 km/h NW 1,50 h 1,0 UV-I 128 W/m 4,4 km/h
30.10.2016 8,4 C 94 % 1030,4 hPa 0,0 l/m 0,0 km/h W-NW 0,25 h 0,7 UV-I 81 W/m 0,0 km/h
31.10.2016 7,4 C 93 % 1027,3 hPa 0,0 l/m 0,6 km/h S 2,08 h 0,9 UV-I 134 W/m 1,2 km/h
Min-Datum 11.10.16 04.10.16 15.10.16 22 Tage 01.10.16 - - - - 01.10.16
Min-Zeit 05:30 13:50 04:35 - 00:00 - - - - 00:00
Minimum 0,6 C 59 % 1005,8 hPa - 0,0 km/h - - - - 0,0 km/h
Max-Datum 16.10.16 10.10.16 05.10.16 19.10.16 19.10.16 - 16.10.16 02.10.16 05.10.16 19.10.16
Max-Zeit 15:30 07:50 00:00 16:05 13:05 - 16:35 12:35 14:20 13:00
Maximum 16,7 C 100 % 1034,7 hPa 20,6 l/m 25,1 km/h
S
- 7,08 h 2,8 UV-I 756 W/m 41,8 km/h
S
Durchschnitt 8,3 C 91 % 1020,7 hPa #73,4 l/m 1,2 km/h N-NO #43:05 h 0,9 UV-I 111 W/m 5,5 km/h

Durchschnitt Minimum Temp.5,7 C
Durchschnitt Maximum Temp.11,3 C